createdAt,value
2022-08-11T00:01:15.668Z,49.30
2022-08-11T00:03:44.036Z,49.90
2022-08-11T00:06:11.338Z,49.40
2022-08-11T00:08:38.179Z,49.50
2022-08-11T00:11:06.741Z,49.70
2022-08-11T00:13:47.398Z,50.00
2022-08-11T00:16:19.187Z,50.00
2022-08-11T00:18:48.106Z,50.90
2022-08-11T00:21:14.956Z,51.30
2022-08-11T00:23:43.583Z,51.30
2022-08-11T00:26:10.440Z,51.20
2022-08-11T00:28:37.331Z,51.20
2022-08-11T00:31:06.550Z,51.50
2022-08-11T00:33:44.733Z,51.20
2022-08-11T00:36:14.247Z,50.60
2022-08-11T00:38:41.954Z,50.00
2022-08-11T00:41:20.664Z,51.20
2022-08-11T00:44:24.817Z,51.60
2022-08-11T00:47:12.575Z,52.10
2022-08-11T00:50:14.613Z,52.00
2022-08-11T00:52:54.022Z,52.10
2022-08-11T00:55:26.774Z,52.50
2022-08-11T00:58:10.098Z,52.40
2022-08-11T01:00:49.504Z,53.40
2022-08-11T01:03:32.769Z,53.70
2022-08-11T01:06:28.863Z,53.30
2022-08-11T01:09:08.506Z,52.90
2022-08-11T01:11:57.672Z,53.20
2022-08-11T01:14:44.319Z,53.00
2022-08-11T01:17:51.316Z,53.30
2022-08-11T01:20:52.080Z,53.60
2022-08-11T01:23:45.206Z,53.90
2022-08-11T01:26:47.299Z,54.40
2022-08-11T01:29:51.312Z,54.70
2022-08-11T01:32:42.539Z,54.90
2022-08-11T01:35:21.225Z,54.50
2022-08-11T01:38:19.873Z,55.10
2022-08-11T01:41:17.935Z,55.00
2022-08-11T01:44:34.331Z,55.20
2022-08-11T01:47:38.708Z,55.20
2022-08-11T01:50:43.487Z,54.40
2022-08-11T01:53:19.357Z,54.00
2022-08-11T01:56:02.168Z,54.40
2022-08-11T01:58:43.151Z,55.00
2022-08-11T02:01:24.404Z,55.20
2022-08-11T02:03:57.160Z,55.30
2022-08-11T02:07:08.970Z,56.10
2022-08-11T02:09:56.699Z,56.90
2022-08-11T02:12:39.101Z,56.90
2022-08-11T02:15:36.416Z,57.10
2022-08-11T02:18:24.642Z,57.70
2022-08-11T02:21:14.135Z,58.10
2022-08-11T02:24:05.744Z,58.50
2022-08-11T02:27:14.786Z,58.40
2022-08-11T02:30:06.335Z,58.40
2022-08-11T02:33:09.566Z,58.90
2022-08-11T02:35:58.023Z,59.50
2022-08-11T02:38:43.270Z,59.60
2022-08-11T02:42:08.988Z,59.50
2022-08-11T02:45:04.801Z,59.90
2022-08-11T02:48:25.053Z,61.30
2022-08-11T02:51:13.253Z,61.80
2022-08-11T02:53:56.140Z,62.60
2022-08-11T02:56:31.010Z,62.60
2022-08-11T02:59:25.366Z,62.80
2022-08-11T03:02:04.604Z,62.70
2022-08-11T03:04:40.942Z,63.80
2022-08-11T03:07:28.773Z,64.60
2022-08-11T03:10:33.860Z,64.30
2022-08-11T03:13:40.793Z,65.30
2022-08-11T03:16:46.572Z,65.80
2022-08-11T03:19:27.006Z,65.60
2022-08-11T03:22:22.269Z,66.00
2022-08-11T03:25:31.661Z,65.50
2022-08-11T03:28:19.395Z,66.80
2022-08-11T03:30:55.173Z,66.40
2022-08-11T03:33:49.707Z,67.10
2022-08-11T03:37:15.575Z,67.00
2022-08-11T03:40:07.546Z,68.10
2022-08-11T03:42:56.799Z,67.80
2022-08-11T03:45:57.287Z,69.10
2022-08-11T03:48:43.437Z,70.00
2022-08-11T03:51:22.618Z,70.50
2022-08-11T03:53:58.431Z,70.50
2022-08-11T03:56:31.235Z,70.70
2022-08-11T03:59:21.769Z,71.10
2022-08-11T04:02:26.311Z,71.50
2022-08-11T04:05:02.567Z,72.90
2022-08-11T04:08:01.990Z,72.70
2022-08-11T04:11:11.612Z,73.60
2022-08-11T04:14:20.001Z,73.80
2022-08-11T04:17:25.343Z,74.90
2022-08-11T04:20:26.529Z,75.70
2022-08-11T04:23:11.989Z,76.90
2022-08-11T04:26:19.014Z,77.60
2022-08-11T04:28:50.992Z,78.00
2022-08-11T04:31:52.315Z,78.40
2022-08-11T04:34:42.175Z,78.60
2022-08-11T04:37:34.864Z,80.00
2022-08-11T04:40:32.843Z,80.40
2022-08-11T04:43:37.338Z,79.50
2022-08-11T04:47:01.971Z,79.60
2022-08-11T04:50:08.660Z,80.90
2022-08-11T04:53:13.098Z,80.20
2022-08-11T04:56:33.064Z,80.70
2022-08-11T04:59:54.451Z,81.80
2022-08-11T05:02:40.674Z,82.30
2022-08-11T05:05:31.673Z,82.00
2022-08-11T05:08:23.894Z,83.30
2022-08-11T05:11:18.929Z,83.30
2022-08-11T05:18:19.164Z,84.90
2022-08-11T05:21:09.454Z,85.80
2022-08-11T05:23:58.253Z,85.50
2022-08-11T05:26:49.096Z,86.10
2022-08-11T05:30:02.711Z,87.20
2022-08-11T05:33:02.308Z,87.30
2022-08-11T05:36:01.801Z,87.90
2022-08-11T05:38:45.246Z,88.40
2022-08-11T05:41:31.164Z,90.30
2022-08-11T05:44:22.546Z,90.50
2022-08-11T05:47:08.167Z,90.60
2022-08-11T05:49:53.915Z,90.80
2022-08-11T05:52:43.513Z,91.00
2022-08-11T05:55:31.091Z,90.80
2022-08-11T05:57:59.697Z,90.30
2022-08-11T06:00:26.604Z,89.60
2022-08-11T06:02:55.762Z,89.00
2022-08-11T06:05:25.770Z,88.60
2022-08-11T06:07:54.396Z,87.90
2022-08-11T06:10:30.836Z,85.80
2022-08-11T06:12:57.637Z,84.40
2022-08-11T06:15:24.511Z,84.80
2022-08-11T06:17:51.984Z,82.80
2022-08-11T06:20:21.951Z,81.50
2022-08-11T06:22:55.548Z,80.90
2022-08-11T06:25:22.322Z,80.40
2022-08-11T06:27:56.381Z,79.50
2022-08-11T06:30:40.472Z,78.10
2022-08-11T06:33:09.707Z,78.30
2022-08-11T06:35:38.965Z,77.20
2022-08-11T06:38:10.901Z,75.80
2022-08-11T06:41:11.249Z,75.20
2022-08-11T06:44:13.282Z,75.20
2022-08-11T06:46:44.422Z,72.90
2022-08-11T06:49:34.535Z,72.10
2022-08-11T06:52:05.772Z,71.70
2022-08-11T06:54:34.390Z,69.30
2022-08-11T06:57:29.854Z,64.20
2022-08-11T07:00:15.393Z,60.30
2022-08-11T07:03:09.211Z,59.00
2022-08-11T07:05:49.260Z,58.20
2022-08-11T07:13:00.257Z,56.70
2022-08-11T07:16:10.438Z,55.20
2022-08-11T07:18:52.473Z,54.10
2022-08-11T07:22:03.182Z,54.00
2022-08-11T07:25:02.710Z,53.10
2022-08-11T07:28:05.428Z,52.60
2022-08-11T07:30:33.152Z,52.10
2022-08-11T07:33:00.995Z,52.30
2022-08-11T07:35:32.768Z,52.10
2022-08-11T07:38:07.978Z,51.80
2022-08-11T07:40:35.319Z,51.50
2022-08-11T07:43:02.112Z,51.10
2022-08-11T07:45:47.387Z,51.10
2022-08-11T07:48:33.795Z,50.40
2022-08-11T07:51:20.004Z,49.80
2022-08-11T07:54:37.348Z,49.80
2022-08-11T07:57:42.968Z,49.00
2022-08-11T08:00:29.976Z,49.00
2022-08-11T08:03:16.752Z,48.40
2022-08-11T08:06:02.206Z,48.00
2022-08-11T08:08:47.342Z,47.70
2022-08-11T08:11:32.696Z,47.90
2022-08-11T08:14:17.940Z,47.90
2022-08-11T08:17:03.526Z,47.50
2022-08-11T08:19:30.373Z,47.00
2022-08-11T08:22:06.096Z,46.50
2022-08-11T08:24:44.300Z,46.40
2022-08-11T08:27:13.744Z,46.10
2022-08-11T08:29:59.504Z,45.40
2022-08-11T08:32:28.017Z,45.10
2022-08-11T08:34:58.629Z,45.20
2022-08-11T08:37:45.450Z,44.70
2022-08-11T08:40:13.702Z,44.50
2022-08-11T08:42:45.859Z,44.00
2022-08-11T08:45:15.786Z,44.10
2022-08-11T08:47:44.239Z,44.10
2022-08-11T08:50:16.216Z,43.80
2022-08-11T08:52:47.860Z,43.60
2022-08-11T08:55:18.813Z,43.20
2022-08-11T08:57:45.954Z,42.30
2022-08-11T09:00:18.120Z,42.20
2022-08-11T09:02:49.433Z,42.40
2022-08-11T09:05:18.015Z,42.10
2022-08-11T09:07:47.537Z,41.40
2022-08-11T09:10:17.310Z,41.20
2022-08-11T09:12:44.162Z,40.50
2022-08-11T09:15:12.040Z,40.10
2022-08-11T09:17:47.012Z,40.40
2022-08-11T09:20:18.823Z,40.00
2022-08-11T09:26:12.609Z,40.40
2022-08-11T09:28:39.409Z,38.90
2022-08-11T09:31:06.414Z,39.00
2022-08-11T09:33:33.280Z,39.00
2022-08-11T09:36:20.101Z,38.60
2022-08-11T09:39:05.740Z,38.80
2022-08-11T09:42:01.185Z,38.70
2022-08-11T09:44:38.071Z,38.60
2022-08-11T09:47:08.297Z,38.90
2022-08-11T09:49:35.129Z,38.80
2022-08-11T09:52:05.275Z,38.70
2022-08-11T09:54:32.529Z,38.80
2022-08-11T09:57:18.900Z,38.90
2022-08-11T09:59:45.711Z,38.40
2022-08-11T10:02:12.588Z,37.80
2022-08-11T10:04:45.865Z,37.80
2022-08-11T10:07:16.719Z,37.30
2022-08-11T10:09:50.755Z,37.40
2022-08-11T10:12:22.294Z,37.60
2022-08-11T10:15:07.577Z,37.60
2022-08-11T10:17:35.902Z,37.40
2022-08-11T10:20:05.911Z,37.00
2022-08-11T10:22:52.566Z,37.10
2022-08-11T10:25:37.855Z,37.40
2022-08-11T10:28:28.459Z,36.80
2022-08-11T10:31:12.456Z,37.20
2022-08-11T10:33:59.924Z,37.10
2022-08-11T10:36:45.095Z,36.90
2022-08-11T10:39:17.194Z,36.90
2022-08-11T10:42:08.936Z,36.50
2022-08-11T10:44:45.891Z,36.30
2022-08-11T10:47:31.987Z,36.40
2022-08-11T10:50:17.495Z,36.60
2022-08-11T10:53:05.363Z,36.40
2022-08-11T10:55:50.726Z,36.10
2022-08-11T10:58:36.595Z,36.80
2022-08-11T11:01:03.606Z,36.20
2022-08-11T11:03:31.100Z,36.20
2022-08-11T11:06:12.873Z,35.80
2022-08-11T11:09:00.026Z,36.00
2022-08-11T11:11:51.730Z,35.80
2022-08-11T11:14:46.121Z,36.00
2022-08-11T11:17:34.481Z,35.90
2022-08-11T11:20:01.383Z,35.30
2022-08-11T11:22:38.413Z,35.40
2022-08-11T11:25:31.050Z,35.00
2022-08-11T11:28:24.158Z,35.00
2022-08-11T11:31:10.980Z,34.80
2022-08-11T11:34:12.109Z,35.00
2022-08-11T11:36:49.056Z,35.10
2022-08-11T11:39:25.460Z,35.20
2022-08-11T11:41:53.928Z,34.80
2022-08-11T11:44:22.785Z,35.30
2022-08-11T11:46:49.961Z,35.10
2022-08-11T11:49:18.659Z,35.50
2022-08-11T11:51:49.873Z,35.30
2022-08-11T11:54:17.324Z,34.80
2022-08-11T11:56:45.470Z,35.00
2022-08-11T11:59:30.824Z,34.70
2022-08-11T12:01:57.677Z,34.30
2022-08-11T12:04:24.632Z,34.20
2022-08-11T12:07:11.457Z,34.30
2022-08-11T12:09:38.294Z,33.90
2022-08-11T12:12:24.134Z,34.40
2022-08-11T12:14:51.015Z,34.00
2022-08-11T12:17:18.176Z,34.30
2022-08-11T12:19:48.381Z,34.00
2022-08-11T12:22:34.026Z,33.80
2022-08-11T12:25:20.731Z,33.70
2022-08-11T12:27:47.657Z,33.90
2022-08-11T12:30:14.609Z,33.50
2022-08-11T12:32:42.275Z,33.00
2022-08-11T12:35:09.398Z,32.50
2022-08-11T12:37:47.235Z,32.90
2022-08-11T12:41:11.825Z,32.80
2022-08-11T12:43:56.968Z,32.80
2022-08-11T12:46:34.706Z,33.50
2022-08-11T12:49:31.143Z,32.70
2022-08-11T12:52:14.556Z,32.50
2022-08-11T12:54:49.831Z,32.10
2022-08-11T12:57:38.051Z,31.80
2022-08-11T13:00:24.950Z,31.60
2022-08-11T13:03:10.355Z,31.60
2022-08-11T13:05:43.002Z,31.60
2022-08-11T13:08:14.027Z,31.50
2022-08-11T13:10:59.525Z,31.20
2022-08-11T13:13:54.300Z,31.50
2022-08-11T13:16:14.930Z,31.40
2022-08-11T13:18:42.932Z,31.80
2022-08-11T13:21:20.333Z,31.60
2022-08-11T13:24:00.318Z,31.80
2022-08-11T13:26:43.302Z,31.70
2022-08-11T13:29:15.733Z,31.20
2022-08-11T13:31:42.994Z,31.30
2022-08-11T13:34:09.894Z,31.90
2022-08-11T13:36:36.786Z,31.10
2022-08-11T13:39:03.779Z,30.90
2022-08-11T13:41:39.496Z,30.50
2022-08-11T13:44:10.576Z,30.60
2022-08-11T13:46:38.040Z,30.30
2022-08-11T13:49:09.108Z,30.50
2022-08-11T13:51:37.526Z,30.40
2022-08-11T13:54:10.330Z,30.20
2022-08-11T13:56:42.404Z,29.90
2022-08-11T13:59:09.626Z,29.80
2022-08-11T14:02:20.322Z,29.30
2022-08-11T14:04:49.388Z,29.40
2022-08-11T14:07:18.955Z,29.40
2022-08-11T14:09:45.952Z,29.00
2022-08-11T14:12:39.883Z,29.20
2022-08-11T14:15:12.488Z,29.00
2022-08-11T14:17:49.018Z,28.80
2022-08-11T14:20:39.407Z,28.80
2022-08-11T14:23:04.924Z,28.80
2022-08-11T14:26:00.474Z,28.40
2022-08-11T14:28:34.146Z,28.30
2022-08-11T14:31:03.606Z,28.20
2022-08-11T14:33:58.204Z,27.90
2022-08-11T14:36:18.206Z,27.70
2022-08-11T14:38:45.158Z,27.80
2022-08-11T14:41:30.476Z,27.60
2022-08-11T14:44:15.983Z,27.30
2022-08-11T14:47:01.480Z,26.80
2022-08-11T14:49:28.679Z,26.70
2022-08-11T14:51:55.973Z,26.50
2022-08-11T14:54:43.428Z,26.70
2022-08-11T14:57:10.369Z,26.20
2022-08-11T14:59:37.905Z,26.10
2022-08-11T15:02:23.995Z,26.10
2022-08-11T15:04:51.591Z,26.20
2022-08-11T15:07:25.370Z,26.20
2022-08-11T15:12:42.009Z,26.30
2022-08-11T15:15:27.572Z,26.10
2022-08-11T15:17:55.555Z,26.10
2022-08-11T15:20:42.250Z,25.90
2022-08-11T15:23:28.052Z,26.00
2022-08-11T15:26:09.043Z,25.90
2022-08-11T15:28:58.147Z,26.20
2022-08-11T15:31:29.326Z,26.00
2022-08-11T15:34:18.182Z,25.80
2022-08-11T15:37:04.180Z,26.00
2022-08-11T15:40:02.035Z,25.70
2022-08-11T15:42:48.116Z,25.50
2022-08-11T15:45:33.329Z,25.30
2022-08-11T15:48:13.085Z,25.80
2022-08-11T15:50:41.447Z,25.10
2022-08-11T15:53:20.725Z,25.40
2022-08-11T15:55:47.724Z,25.80
2022-08-11T15:58:33.112Z,25.40
2022-08-11T16:01:32.245Z,25.50
2022-08-11T16:04:14.249Z,25.30
2022-08-11T16:06:46.342Z,25.30
2022-08-11T16:09:20.573Z,25.00
2022-08-11T16:11:47.630Z,25.00
2022-08-11T16:14:33.607Z,25.40
2022-08-11T16:17:00.501Z,25.00
2022-08-11T16:19:28.926Z,24.90
2022-08-11T16:21:56.033Z,25.10
2022-08-11T16:27:05.193Z,24.90
2022-08-11T16:27:14.223Z,24.60
2022-08-11T16:29:44.436Z,24.90
2022-08-11T16:32:20.415Z,26.10
2022-08-11T16:35:17.763Z,25.40
2022-08-11T16:38:03.181Z,25.50
2022-08-11T16:40:30.128Z,25.50
2022-08-11T16:43:17.829Z,25.10
2022-08-11T16:46:03.319Z,25.20
2022-08-11T16:48:36.845Z,25.50
2022-08-11T16:51:08.505Z,24.90
2022-08-11T16:54:04.009Z,24.80
2022-08-11T16:56:43.868Z,25.20
2022-08-11T16:59:17.405Z,25.30
2022-08-11T17:01:59.679Z,26.30
2022-08-11T17:05:03.961Z,26.00
2022-08-11T17:07:49.366Z,25.90
2022-08-11T17:10:52.356Z,26.20
2022-08-11T17:13:26.307Z,27.50
2022-08-11T17:16:10.996Z,28.40
2022-08-11T17:18:44.016Z,29.40
2022-08-11T17:21:29.997Z,30.40
2022-08-11T17:24:09.343Z,31.50
2022-08-11T17:26:59.447Z,32.80
2022-08-11T17:29:30.737Z,33.40
2022-08-11T17:32:16.039Z,34.20
2022-08-11T17:35:02.676Z,35.40
2022-08-11T17:37:31.217Z,36.80
2022-08-11T17:39:58.320Z,38.00
2022-08-11T17:42:47.949Z,38.60
2022-08-11T17:45:33.837Z,39.50
2022-08-11T17:48:19.352Z,40.20
2022-08-11T17:50:47.109Z,40.70
2022-08-11T17:53:32.617Z,41.70
2022-08-11T17:56:18.535Z,42.30
2022-08-11T17:59:04.070Z,42.70
2022-08-11T18:01:33.967Z,42.60
2022-08-11T18:04:01.261Z,42.80
2022-08-11T18:06:34.252Z,43.20
2022-08-11T18:09:26.461Z,42.70
2022-08-11T18:12:13.180Z,43.10
2022-08-11T18:15:02.292Z,44.10
2022-08-11T18:17:48.116Z,44.50
2022-08-11T18:20:33.668Z,44.90
2022-08-11T18:23:19.913Z,45.60
2022-08-11T18:26:07.310Z,46.60
2022-08-11T18:29:01.583Z,47.20
2022-08-11T18:31:47.039Z,47.80
2022-08-11T18:34:33.295Z,48.40
2022-08-11T18:37:26.031Z,48.90
2022-08-11T18:40:16.742Z,49.40
2022-08-11T18:43:03.192Z,50.10
2022-08-11T18:45:52.788Z,50.70
2022-08-11T18:48:51.767Z,51.00
2022-08-11T18:51:37.437Z,51.50
2022-08-11T18:54:27.456Z,51.90
2022-08-11T18:57:13.339Z,52.20
2022-08-11T18:59:59.734Z,52.50
2022-08-11T19:02:48.918Z,52.90
2022-08-11T19:06:08.361Z,53.00
2022-08-11T19:08:42.576Z,53.70
2022-08-11T19:11:28.401Z,53.70
2022-08-11T19:14:14.701Z,53.70
2022-08-11T19:16:59.935Z,54.20
2022-08-11T19:19:47.713Z,54.50
2022-08-11T19:22:33.274Z,54.50
2022-08-11T19:25:23.282Z,54.50
2022-08-11T19:28:10.699Z,54.50
2022-08-11T19:30:56.185Z,54.50
2022-08-11T19:33:59.799Z,54.80
2022-08-11T19:36:46.671Z,54.70
2022-08-11T19:39:32.517Z,54.90
2022-08-11T19:42:17.899Z,55.20
2022-08-11T19:45:03.219Z,55.60
2022-08-11T19:47:48.673Z,55.10
2022-08-11T19:50:34.140Z,55.80
2022-08-11T19:53:23.518Z,56.40
2022-08-11T19:56:10.353Z,56.50
2022-08-11T19:58:56.031Z,56.10
2022-08-11T20:02:12.941Z,56.20
2022-08-11T20:04:47.161Z,56.40
2022-08-11T20:07:36.671Z,56.40
2022-08-11T20:10:22.787Z,56.90
2022-08-11T20:13:08.325Z,56.30
2022-08-11T20:15:53.604Z,56.30
2022-08-11T20:18:39.198Z,55.40
2022-08-11T20:21:29.958Z,53.80
2022-08-11T20:24:16.802Z,53.30
2022-08-11T20:27:01.999Z,53.40
2022-08-11T20:29:48.306Z,54.00
2022-08-11T20:32:34.266Z,52.20
2022-08-11T20:35:19.631Z,52.00
2022-08-11T20:38:05.138Z,50.90
2022-08-11T20:40:50.424Z,50.60
2022-08-11T20:44:06.001Z,51.00
2022-08-11T20:46:42.600Z,49.60
2022-08-11T20:49:27.926Z,49.50
2022-08-11T20:52:29.559Z,49.30
2022-08-11T20:55:19.222Z,48.20
2022-08-11T20:58:17.753Z,48.60
2022-08-11T21:01:04.701Z,49.00
2022-08-11T21:03:59.812Z,48.50
2022-08-11T21:06:46.472Z,48.80
2022-08-11T21:09:58.072Z,49.20
2022-08-11T21:12:37.150Z,47.90
2022-08-11T21:15:46.935Z,47.10
2022-08-11T21:18:29.650Z,46.80
2022-08-11T21:21:16.399Z,46.80
2022-08-11T21:24:02.165Z,46.60
2022-08-11T21:26:47.614Z,46.60
2022-08-11T21:29:32.883Z,46.90
2022-08-11T21:32:18.192Z,46.90
2022-08-11T21:35:03.518Z,47.00
2022-08-11T21:37:50.295Z,47.40
2022-08-11T21:40:37.212Z,48.10
2022-08-11T21:43:22.371Z,48.60
2022-08-11T21:46:07.698Z,49.30
2022-08-11T21:48:53.227Z,49.30
2022-08-11T21:51:38.447Z,49.00
2022-08-11T21:54:29.637Z,48.70
2022-08-11T21:57:15.239Z,49.30
2022-08-11T22:00:13.915Z,49.70
2022-08-11T22:03:00.424Z,50.20
2022-08-11T22:05:45.737Z,50.10
2022-08-11T22:08:31.596Z,50.80
2022-08-11T22:11:31.700Z,50.70
2022-08-11T22:14:21.028Z,51.20
2022-08-11T22:17:06.688Z,52.10
2022-08-11T22:19:53.160Z,52.40
2022-08-11T22:22:52.047Z,52.70
2022-08-11T22:25:50.800Z,53.60
2022-08-11T22:28:37.831Z,53.60
2022-08-11T22:31:23.639Z,54.00
2022-08-11T22:34:09.054Z,54.10
2022-08-11T22:36:54.649Z,54.30
2022-08-11T22:39:40.093Z,54.60
2022-08-11T22:42:33.996Z,54.60
2022-08-11T22:45:19.955Z,53.90
2022-08-11T22:48:06.328Z,54.60
2022-08-11T22:50:52.621Z,54.60
2022-08-11T22:53:57.545Z,54.70
2022-08-11T22:56:43.218Z,53.30
2022-08-11T22:59:28.737Z,53.60
2022-08-11T23:02:14.145Z,53.10
2022-08-11T23:04:59.846Z,53.10
2022-08-11T23:07:51.086Z,53.40
2022-08-11T23:10:39.294Z,52.30
2022-08-11T23:13:25.993Z,53.40
2022-08-11T23:16:12.967Z,52.40
2022-08-11T23:18:59.065Z,52.50
2022-08-11T23:21:45.540Z,53.40
2022-08-11T23:24:31.618Z,53.60
2022-08-11T23:27:16.941Z,52.90
2022-08-11T23:30:02.410Z,51.80
2022-08-11T23:32:48.345Z,52.40
2022-08-11T23:35:38.464Z,52.60
2022-08-11T23:38:25.334Z,51.80
2022-08-11T23:41:10.686Z,51.40
2022-08-11T23:43:55.890Z,51.20
2022-08-11T23:46:42.389Z,51.00
2022-08-11T23:49:27.848Z,51.40
2022-08-11T23:52:13.159Z,51.60
2022-08-11T23:54:58.756Z,52.50
2022-08-11T23:57:49.260Z,52.40
